createdAt,value
2019-03-29T00:00:03.396Z,91.2
2019-03-29T00:01:03.228Z,90
2019-03-29T00:02:03.230Z,89.3
2019-03-29T00:03:03.230Z,90.3
2019-03-29T00:04:03.210Z,91.2
2019-03-29T00:05:03.044Z,91.4
2019-03-29T00:06:03.039Z,89.8
2019-03-29T00:07:04.413Z,89.8
2019-03-29T00:08:03.094Z,91.7
2019-03-29T00:09:03.599Z,91.7
2019-03-29T00:10:03.347Z,93.1
2019-03-29T00:11:04.053Z,93.5
2019-03-29T00:12:02.969Z,93.3
2019-03-29T00:13:03.706Z,92.8
2019-03-29T00:14:03.301Z,93.1
2019-03-29T00:15:03.707Z,93.1
2019-03-29T00:16:03.490Z,92.8
2019-03-29T00:17:03.433Z,91.7
2019-03-29T00:18:03.266Z,91.2
2019-03-29T00:19:03.157Z,91.4
2019-03-29T00:20:06.650Z,92.1
2019-03-29T00:21:03.633Z,90.7
2019-03-29T00:22:03.489Z,92.4
2019-03-29T00:23:03.379Z,91.4
2019-03-29T00:24:07.582Z,91.9
2019-03-29T00:25:03.290Z,92.6
2019-03-29T00:26:03.112Z,93.5
2019-03-29T00:27:03.013Z,93.8
2019-03-29T00:28:03.888Z,93.5
2019-03-29T00:29:03.614Z,93.3
2019-03-29T00:30:03.340Z,93.3
2019-03-29T00:31:02.924Z,93.3
2019-03-29T00:32:02.985Z,94.7
2019-03-29T00:33:03.198Z,94.9
2019-03-29T00:34:03.312Z,95.6
2019-03-29T00:35:02.932Z,95.4
2019-03-29T00:36:02.946Z,95.2
2019-03-29T00:37:03.167Z,96.3
2019-03-29T00:38:03.862Z,94.7
2019-03-29T00:39:03.023Z,94.7
2019-03-29T00:40:03.907Z,92.8
2019-03-29T00:41:02.890Z,92.6
2019-03-29T00:42:03.946Z,93.3
2019-03-29T00:43:03.640Z,92.8
2019-03-29T00:44:03.488Z,92.6
2019-03-29T00:45:03.647Z,92.1
2019-03-29T00:46:03.691Z,92.1
2019-03-29T00:47:04.458Z,91.2
2019-03-29T00:48:03.375Z,92.1
2019-03-29T00:49:03.494Z,91.9
2019-03-29T00:50:03.742Z,92.4
2019-03-29T00:51:03.438Z,90.7
2019-03-29T00:52:03.379Z,89.3
2019-03-29T00:53:03.288Z,88.6
2019-03-29T00:54:03.622Z,88.6
2019-03-29T00:55:03.240Z,87.9
2019-03-29T00:56:03.610Z,88.9
2019-03-29T00:57:05.371Z,89.6
2019-03-29T00:58:03.737Z,90.3
2019-03-29T00:59:03.601Z,91
2019-03-29T01:00:03.492Z,91.4
2019-03-29T01:01:03.932Z,91.4
2019-03-29T01:02:03.413Z,91.4
2019-03-29T01:03:02.998Z,90.3
2019-03-29T01:04:03.477Z,90.5
2019-03-29T01:05:03.346Z,89.3
2019-03-29T01:06:03.405Z,91
2019-03-29T01:07:03.230Z,91
2019-03-29T01:08:10.991Z,89.6
2019-03-29T01:09:03.222Z,89.3
2019-03-29T01:10:03.591Z,89.3
2019-03-29T01:11:03.137Z,88.6
2019-03-29T01:12:03.177Z,89.3
2019-03-29T01:13:02.994Z,89.1
2019-03-29T01:14:03.249Z,89.6
2019-03-29T01:15:03.239Z,90
2019-03-29T01:16:03.119Z,91.9
2019-03-29T01:17:03.159Z,92.8
2019-03-29T01:18:03.442Z,94.2
2019-03-29T01:19:04.338Z,94
2019-03-29T01:20:03.263Z,94.7
2019-03-29T01:21:03.360Z,95.2
2019-03-29T01:22:03.091Z,94
2019-03-29T01:23:03.423Z,95.2
2019-03-29T01:24:03.161Z,95.4
2019-03-29T01:25:03.431Z,95.2
2019-03-29T01:26:03.077Z,94.5
2019-03-29T01:27:03.261Z,94.9
2019-03-29T01:28:03.184Z,96.1
2019-03-29T01:29:03.028Z,95.4
2019-03-29T01:30:03.023Z,94.5
2019-03-29T01:31:03.167Z,95.6
2019-03-29T01:32:02.936Z,94.7
2019-03-29T01:33:04.004Z,93.8
2019-03-29T01:34:02.744Z,92.4
2019-03-29T01:35:03.808Z,92.6
2019-03-29T01:36:03.726Z,92.8
2019-03-29T01:37:03.803Z,92.6
2019-03-29T01:38:03.161Z,93.5
2019-03-29T01:39:03.758Z,94
2019-03-29T01:40:03.845Z,94.9
2019-03-29T01:41:03.727Z,95.2
2019-03-29T01:42:02.833Z,94.5
2019-03-29T01:43:02.986Z,93.8
2019-03-29T01:44:03.693Z,93.3
2019-03-29T01:45:03.030Z,93.1
2019-03-29T01:46:02.739Z,91.4
2019-03-29T01:47:04.466Z,91.4
2019-03-29T01:48:02.937Z,92.1
2019-03-29T01:49:03.104Z,92.4
2019-03-29T01:50:03.811Z,92.1
2019-03-29T01:51:03.158Z,92.6
2019-03-29T01:52:02.920Z,93.5
2019-03-29T01:53:03.763Z,93.8
2019-03-29T01:54:04.604Z,93.1
2019-03-29T01:55:03.477Z,94
2019-03-29T01:56:03.887Z,92.6
2019-03-29T01:57:03.341Z,92.6
2019-03-29T01:58:03.952Z,91.9
2019-03-29T01:59:03.391Z,92.1
2019-03-29T02:00:03.552Z,92.8
2019-03-29T02:01:03.681Z,92.8
2019-03-29T02:02:03.675Z,92.8
2019-03-29T02:03:03.647Z,92.8
2019-03-29T02:04:08.512Z,91.9
2019-03-29T02:05:03.598Z,92.8
2019-03-29T02:06:03.594Z,90.3
2019-03-29T02:07:03.215Z,90.3
2019-03-29T02:08:05.321Z,89.1
2019-03-29T02:09:05.462Z,88.9
2019-03-29T02:10:03.539Z,87.9
2019-03-29T02:11:03.741Z,88.2
2019-03-29T02:12:03.548Z,88.4
2019-03-29T02:13:03.794Z,90.7
2019-03-29T02:14:03.387Z,90
2019-03-29T02:15:03.730Z,90.5
2019-03-29T02:16:04.336Z,90.3
2019-03-29T02:17:03.522Z,89.3
2019-03-29T02:18:03.740Z,88.2
2019-03-29T02:19:03.500Z,87.2
2019-03-29T02:20:03.739Z,86.5
2019-03-29T02:21:03.668Z,86.1
2019-03-29T02:22:03.666Z,87.5
2019-03-29T02:23:04.540Z,86.3
2019-03-29T02:24:03.652Z,85.6
2019-03-29T02:25:03.701Z,85.1
2019-03-29T02:26:03.889Z,85.1
2019-03-29T02:27:03.335Z,85.4
2019-03-29T02:28:03.380Z,85.8
2019-03-29T02:29:03.515Z,86.5
2019-03-29T02:30:05.402Z,87.7
2019-03-29T02:31:03.424Z,88.2
2019-03-29T02:32:03.308Z,87.9
2019-03-29T02:33:03.488Z,89.3
2019-03-29T02:34:03.535Z,89.8
2019-03-29T02:35:03.568Z,90.5
2019-03-29T02:36:03.388Z,89.8
2019-03-29T02:37:03.717Z,89.8
2019-03-29T02:38:03.272Z,89.3
2019-03-29T02:39:03.178Z,89.1
2019-03-29T02:40:03.504Z,88.4
2019-03-29T02:41:03.763Z,88.4
2019-03-29T02:42:03.681Z,88.6
2019-03-29T02:43:03.336Z,88.9
2019-03-29T02:44:03.354Z,89.1
2019-03-29T02:45:04.132Z,90.7
2019-03-29T02:46:03.440Z,91.4
2019-03-29T02:47:03.274Z,90.5
2019-03-29T02:48:02.933Z,89.3
2019-03-29T02:49:03.296Z,88.9
2019-03-29T02:50:03.655Z,88.2
2019-03-29T02:51:05.444Z,88.4
2019-03-29T02:52:03.308Z,88.6
2019-03-29T02:53:03.586Z,89.1
2019-03-29T02:54:03.170Z,89.3
2019-03-29T02:55:03.584Z,89.6
2019-03-29T02:56:03.639Z,91
2019-03-29T02:57:03.405Z,90.5
2019-03-29T02:58:03.186Z,90.3
2019-03-29T02:59:03.185Z,89.1
2019-03-29T03:00:03.288Z,88.2
2019-03-29T03:01:03.360Z,87.7
2019-03-29T03:02:03.282Z,88.4
2019-03-29T03:03:03.732Z,89.1
2019-03-29T03:04:03.604Z,89.8
2019-03-29T03:05:03.775Z,89.6
2019-03-29T03:06:03.540Z,90.3
2019-03-29T03:07:03.378Z,89.6
2019-03-29T03:08:03.683Z,90.3
2019-03-29T03:09:15.177Z,90.5
2019-03-29T03:10:03.585Z,91
2019-03-29T03:11:03.342Z,91.9
2019-03-29T03:12:03.861Z,91.7
2019-03-29T03:13:03.438Z,90
2019-03-29T03:14:03.618Z,90.5
2019-03-29T03:15:03.655Z,89.8
2019-03-29T03:16:03.322Z,90.3
2019-03-29T03:17:03.498Z,91.2
2019-03-29T03:18:03.712Z,91.7
2019-03-29T03:19:03.218Z,92.6
2019-03-29T03:20:03.686Z,92.1
2019-03-29T03:21:03.509Z,92.8
2019-03-29T03:22:03.355Z,92.1
2019-03-29T03:23:03.449Z,92.1
2019-03-29T03:24:03.543Z,91.9
2019-03-29T03:25:03.650Z,92.6
2019-03-29T03:26:03.685Z,93.3
2019-03-29T03:27:03.366Z,93.3
2019-03-29T03:28:03.355Z,93.8
2019-03-29T03:29:04.017Z,94.2
2019-03-29T03:30:03.582Z,92.8
2019-03-29T03:31:03.382Z,93.1
2019-03-29T03:32:03.151Z,94.2
2019-03-29T03:33:03.436Z,94.5
2019-03-29T03:34:03.643Z,94
2019-03-29T03:35:03.356Z,94.5
2019-03-29T03:36:03.359Z,94
2019-03-29T03:37:03.093Z,94.9
2019-03-29T03:38:03.720Z,95.6
2019-03-29T03:39:03.440Z,96.3
2019-03-29T03:40:03.430Z,96.8
2019-03-29T03:41:03.371Z,96.8
2019-03-29T03:42:03.323Z,96.1
2019-03-29T03:43:03.408Z,96.3
2019-03-29T03:44:03.132Z,96.8
2019-03-29T03:45:03.199Z,95.4
2019-03-29T03:46:02.959Z,95.2
2019-03-29T03:47:03.160Z,95.4
2019-03-29T03:48:03.062Z,96.6
2019-03-29T03:49:03.013Z,96.6
2019-03-29T03:50:03.210Z,96.3
2019-03-29T03:51:03.026Z,97.7
2019-03-29T03:52:03.403Z,98
2019-03-29T03:53:03.373Z,96.6
2019-03-29T03:54:03.032Z,96.6
2019-03-29T03:55:03.376Z,95.6
2019-03-29T03:56:03.212Z,93.5
2019-03-29T03:57:02.909Z,94.2
2019-03-29T03:58:03.381Z,94.5
2019-03-29T03:59:03.194Z,93.5
2019-03-29T04:00:03.229Z,92.8
2019-03-29T04:01:02.983Z,93.5
2019-03-29T04:02:03.369Z,94.2
2019-03-29T04:03:03.016Z,93.8
2019-03-29T04:04:03.044Z,93.3
2019-03-29T04:05:04.033Z,94.5
2019-03-29T04:06:02.985Z,94
2019-03-29T04:07:02.883Z,94.7
2019-03-29T04:08:02.992Z,95.4
2019-03-29T04:09:03.164Z,96.1
2019-03-29T04:10:03.180Z,95.9
2019-03-29T04:11:03.663Z,95.6
2019-03-29T04:12:03.711Z,95.2
2019-03-29T04:13:02.850Z,94.7
2019-03-29T04:14:03.796Z,94.9
2019-03-29T04:15:03.982Z,94.7
2019-03-29T04:16:03.736Z,93.1
2019-03-29T04:17:03.612Z,93.1
2019-03-29T04:18:03.595Z,92.4
2019-03-29T04:19:03.232Z,91.7
2019-03-29T04:20:03.061Z,91.7
2019-03-29T04:21:03.691Z,91.4
2019-03-29T04:22:03.616Z,90.7
2019-03-29T04:23:03.542Z,91.4
2019-03-29T04:24:03.704Z,92.4
2019-03-29T04:25:03.796Z,92.1
2019-03-29T04:26:03.785Z,92.1
2019-03-29T04:27:03.697Z,92.4
2019-03-29T04:28:03.477Z,90.7
2019-03-29T04:29:05.669Z,89.6
2019-03-29T04:30:03.974Z,91.4
2019-03-29T04:31:03.769Z,90.7
2019-03-29T04:32:03.746Z,90.3
2019-03-29T04:33:03.463Z,90
2019-03-29T04:34:03.686Z,90
2019-03-29T04:35:03.650Z,89.8
2019-03-29T04:36:03.567Z,90.5
2019-03-29T04:37:03.688Z,90
2019-03-29T04:38:03.494Z,89.3
2019-03-29T04:39:03.521Z,90.3
2019-03-29T04:40:09.496Z,90
2019-03-29T04:41:03.616Z,91.4
2019-03-29T04:42:03.262Z,92.4
2019-03-29T04:43:03.505Z,93.1
2019-03-29T04:44:03.673Z,91.9
2019-03-29T04:45:03.584Z,91.7
2019-03-29T04:46:03.770Z,93.3
2019-03-29T04:47:03.627Z,94.9
2019-03-29T04:48:03.647Z,94.5
2019-03-29T04:49:03.420Z,95.6
2019-03-29T04:50:03.769Z,97.3
2019-03-29T04:51:03.560Z,95.6
2019-03-29T04:52:03.446Z,96.3
2019-03-29T04:53:03.638Z,99.1
2019-03-29T04:54:03.567Z,98.9
2019-03-29T04:55:03.393Z,98.4
2019-03-29T04:56:03.635Z,98.7
2019-03-29T04:57:03.740Z,98
2019-03-29T04:58:03.505Z,99.4
2019-03-29T04:59:03.579Z,100.1
2019-03-29T05:00:03.597Z,99.8
2019-03-29T05:01:03.632Z,99.4
2019-03-29T05:02:03.618Z,99.6
2019-03-29T05:03:03.483Z,100.8
2019-03-29T05:04:03.735Z,101
2019-03-29T05:05:03.748Z,99.8
2019-03-29T05:06:03.452Z,100.3
2019-03-29T05:07:03.514Z,101
2019-03-29T05:08:03.802Z,101.5
2019-03-29T05:09:03.752Z,101
2019-03-29T05:10:03.565Z,101.7
2019-03-29T05:11:03.512Z,101.5
2019-03-29T05:12:02.964Z,101.9
2019-03-29T05:13:03.250Z,103.3
2019-03-29T05:14:03.462Z,102.6
2019-03-29T05:15:03.471Z,102.6
2019-03-29T05:16:03.495Z,102.4
2019-03-29T05:17:03.443Z,101.7
2019-03-29T05:18:03.120Z,103.3
2019-03-29T05:19:03.467Z,103.6
2019-03-29T05:20:03.602Z,104.5
2019-03-29T05:21:03.424Z,104.7
2019-03-29T05:22:03.289Z,104.5
2019-03-29T05:23:03.360Z,104
2019-03-29T05:24:03.482Z,104.3
2019-03-29T05:25:03.866Z,103.6
2019-03-29T05:26:03.758Z,104
2019-03-29T05:27:03.080Z,102.9
2019-03-29T05:28:03.437Z,102.9
2019-03-29T05:29:03.589Z,103.3
2019-03-29T05:30:03.345Z,102.9
2019-03-29T05:31:03.287Z,102.4
2019-03-29T05:32:03.333Z,102.2
2019-03-29T05:33:03.471Z,101.5
2019-03-29T05:34:03.472Z,102.6
2019-03-29T05:35:03.469Z,102.9
2019-03-29T05:36:02.879Z,103.3
2019-03-29T05:37:03.770Z,101.5
2019-03-29T05:38:03.880Z,101.7
2019-03-29T05:39:03.659Z,101.5
2019-03-29T05:40:03.893Z,102.4
2019-03-29T05:41:03.712Z,102.2
2019-03-29T05:42:03.651Z,101.2
2019-03-29T05:43:03.672Z,99.8
2019-03-29T05:44:03.612Z,101.2
2019-03-29T05:45:03.836Z,101.5
2019-03-29T05:46:03.578Z,101
2019-03-29T05:47:03.401Z,99.6
2019-03-29T05:48:03.607Z,99.1
2019-03-29T05:49:03.567Z,100.1
2019-03-29T05:50:03.399Z,100.1
2019-03-29T05:51:03.527Z,100.5
2019-03-29T05:52:03.886Z,98.4
2019-03-29T05:53:03.596Z,97.3
2019-03-29T05:54:03.567Z,97.5
2019-03-29T05:55:03.422Z,98.2
2019-03-29T05:56:03.703Z,98.9
2019-03-29T05:57:03.732Z,98.4
2019-03-29T05:58:03.716Z,97.5
2019-03-29T05:59:03.421Z,97.5
2019-03-29T06:00:03.661Z,98
2019-03-29T06:01:03.204Z,99.1
2019-03-29T06:02:03.600Z,98.9
2019-03-29T06:03:03.401Z,97
2019-03-29T06:04:03.076Z,96.8
2019-03-29T06:05:03.176Z,96.1
2019-03-29T06:06:03.313Z,96.6
2019-03-29T06:07:03.705Z,96.6
2019-03-29T06:08:03.308Z,95.6
2019-03-29T06:09:03.713Z,96.3
2019-03-29T06:10:03.743Z,95.6
2019-03-29T06:11:03.551Z,94.9
2019-03-29T06:12:03.643Z,94.9
2019-03-29T06:13:03.795Z,93.8
2019-03-29T06:14:03.707Z,93.5
2019-03-29T06:15:03.764Z,92.8
2019-03-29T06:16:06.614Z,93.3
2019-03-29T06:17:03.493Z,93.1
2019-03-29T06:18:03.097Z,91.2
2019-03-29T06:19:03.764Z,92.6
2019-03-29T06:20:03.559Z,92.1
2019-03-29T06:21:03.520Z,92.1
2019-03-29T06:22:03.555Z,91.7
2019-03-29T06:23:03.733Z,93.1
2019-03-29T06:24:03.748Z,91.7
2019-03-29T06:25:03.535Z,91.2
2019-03-29T06:26:04.003Z,89.8
2019-03-29T06:27:03.757Z,91.9
2019-03-29T06:28:03.529Z,92.6
2019-03-29T06:29:03.412Z,91.7
2019-03-29T06:30:03.975Z,91.9
2019-03-29T06:31:03.792Z,91.7
2019-03-29T06:32:03.811Z,92.4
2019-03-29T06:33:03.891Z,92.6
2019-03-29T06:34:03.881Z,91.9
2019-03-29T06:35:03.937Z,90.7
2019-03-29T06:36:03.174Z,90
2019-03-29T06:37:02.907Z,92.6
2019-03-29T06:38:03.186Z,93.3
2019-03-29T06:39:02.789Z,93.8
2019-03-29T06:40:02.980Z,92.1
2019-03-29T06:41:03.964Z,91
2019-03-29T06:42:03.930Z,92.1
2019-03-29T06:43:03.170Z,93.3
2019-03-29T06:44:02.982Z,92.4
2019-03-29T06:45:02.875Z,92.6
2019-03-29T06:46:03.893Z,92.1
2019-03-29T06:47:02.928Z,93.1
2019-03-29T06:48:03.074Z,93.3
2019-03-29T06:49:03.223Z,91.7
2019-03-29T06:50:03.240Z,90.5
2019-03-29T06:51:03.211Z,91.4
2019-03-29T06:52:02.926Z,92.4
2019-03-29T06:53:02.948Z,91.9
2019-03-29T06:54:03.083Z,91.9
2019-03-29T06:55:03.978Z,91.4
2019-03-29T06:56:03.706Z,91
2019-03-29T06:57:02.796Z,91.7
2019-03-29T06:58:02.933Z,91
2019-03-29T06:59:03.759Z,91.9
2019-03-29T07:00:03.947Z,91.7
2019-03-29T07:01:03.842Z,91
2019-03-29T07:02:03.352Z,89.8
2019-03-29T07:03:03.033Z,90.7
2019-03-29T07:04:02.862Z,91.2
2019-03-29T07:05:02.765Z,92.4
2019-03-29T07:06:03.014Z,92.1
2019-03-29T07:07:02.750Z,91.7
2019-03-29T07:08:03.015Z,91
2019-03-29T07:09:03.060Z,89.3
2019-03-29T07:10:03.639Z,89.6
2019-03-29T07:11:18.404Z,90.3
2019-03-29T07:12:03.788Z,90.5
2019-03-29T07:13:03.797Z,91.7
2019-03-29T07:14:03.545Z,92.1
2019-03-29T07:15:03.501Z,93.8
2019-03-29T07:16:03.389Z,93.5
2019-03-29T07:17:03.289Z,94.7
2019-03-29T07:18:04.501Z,95.6
2019-03-29T07:19:05.485Z,94.7
2019-03-29T07:20:03.535Z,94.9
2019-03-29T07:21:03.544Z,94.7
2019-03-29T07:22:03.527Z,95.9
2019-03-29T07:23:03.728Z,95.9
2019-03-29T07:24:03.497Z,96.6
2019-03-29T07:25:03.679Z,97.3
2019-03-29T07:26:03.710Z,97.3
2019-03-29T07:27:03.514Z,95.9
2019-03-29T07:28:03.144Z,94.9
2019-03-29T07:29:02.803Z,94.9
2019-03-29T07:30:03.415Z,94.5
2019-03-29T07:31:03.347Z,94.2
2019-03-29T07:32:03.374Z,94
2019-03-29T07:33:03.440Z,94.2
2019-03-29T07:34:03.537Z,94
2019-03-29T07:35:03.184Z,95.2
2019-03-29T07:36:03.127Z,94.9
2019-03-29T07:37:06.242Z,93.5
2019-03-29T07:38:03.247Z,93.3
2019-03-29T07:39:03.180Z,91.7
2019-03-29T07:40:03.497Z,94.5
2019-03-29T07:41:03.252Z,94.5
2019-03-29T07:42:03.264Z,94.2
2019-03-29T07:43:03.208Z,93.1
2019-03-29T07:44:03.206Z,93.1
2019-03-29T07:45:03.464Z,92.6
2019-03-29T07:46:03.370Z,92.6
2019-03-29T07:47:03.289Z,91.4
2019-03-29T07:48:03.242Z,90
2019-03-29T07:49:03.637Z,91.2
2019-03-29T07:50:03.091Z,91.2
2019-03-29T07:51:03.496Z,91.2
2019-03-29T07:52:03.348Z,90.7
2019-03-29T07:53:03.561Z,90.7
2019-03-29T07:54:03.076Z,90.3
2019-03-29T07:55:03.365Z,91.7
2019-03-29T07:56:03.519Z,91.9
2019-03-29T07:57:03.320Z,92.6
2019-03-29T07:58:03.599Z,92.4
2019-03-29T07:59:03.020Z,91.7
2019-03-29T08:00:02.839Z,91.9
2019-03-29T08:01:03.254Z,92.4
2019-03-29T08:02:03.405Z,91.9
2019-03-29T08:03:03.275Z,92.8
2019-03-29T08:04:03.502Z,93.1
2019-03-29T08:05:03.350Z,92.6
2019-03-29T08:06:03.112Z,92.4
2019-03-29T08:07:03.139Z,91.4
2019-03-29T08:08:03.493Z,91.4
2019-03-29T08:09:03.238Z,91.7
2019-03-29T08:10:04.466Z,91.7
2019-03-29T08:11:03.475Z,91.4
2019-03-29T08:12:03.115Z,91
2019-03-29T08:13:03.382Z,90.3
2019-03-29T08:14:03.158Z,90.7
2019-03-29T08:15:03.177Z,91
2019-03-29T08:16:06.954Z,91
2019-03-29T08:17:03.907Z,90.7
2019-03-29T08:18:03.820Z,90.3
2019-03-29T08:19:02.870Z,90.7
2019-03-29T08:20:45.008Z,90.3
2019-03-29T08:21:03.155Z,90.3
2019-03-29T08:22:02.956Z,90.3
2019-03-29T08:23:03.140Z,90.5
2019-03-29T08:24:03.257Z,90.7
2019-03-29T08:25:03.467Z,91.4
2019-03-29T08:26:03.441Z,91.2
2019-03-29T08:27:02.805Z,91
2019-03-29T08:28:04.021Z,91.9
2019-03-29T08:29:03.226Z,92.6
2019-03-29T08:30:03.410Z,93.3
2019-03-29T08:31:03.430Z,94
2019-03-29T08:32:03.390Z,93.1
2019-03-29T08:33:03.041Z,93.5
2019-03-29T08:34:03.498Z,93.8
2019-03-29T08:35:03.745Z,93.5
2019-03-29T08:36:03.758Z,94
2019-03-29T08:37:03.391Z,94.9
2019-03-29T08:38:06.717Z,95.6
2019-03-29T08:39:03.516Z,95.6
2019-03-29T08:40:03.444Z,94.7
2019-03-29T08:41:03.602Z,94.7
2019-03-29T08:42:03.271Z,93.8
2019-03-29T08:43:03.473Z,94.9
2019-03-29T08:44:03.412Z,95.2
2019-03-29T08:45:03.701Z,95.6
2019-03-29T08:46:03.588Z,95.4
2019-03-29T08:47:03.526Z,96.1
2019-03-29T08:48:07.246Z,98
2019-03-29T08:49:03.458Z,97
2019-03-29T08:50:03.426Z,96.1
2019-03-29T08:51:03.689Z,95.2
2019-03-29T08:52:03.405Z,95.2
2019-03-29T08:53:03.552Z,94.7
2019-03-29T08:54:03.282Z,96.1
2019-03-29T08:55:03.649Z,96.1
2019-03-29T08:56:03.286Z,96.6
2019-03-29T08:57:03.128Z,97
2019-03-29T08:58:03.978Z,98
2019-03-29T08:59:03.083Z,98.2
2019-03-29T09:00:03.407Z,99.4
2019-03-29T09:01:03.044Z,99.1
2019-03-29T09:02:03.501Z,100.5
2019-03-29T09:03:03.641Z,99.1
2019-03-29T09:04:06.387Z,98.4
2019-03-29T09:05:03.365Z,98.2
2019-03-29T09:06:03.098Z,97.7
2019-03-29T09:07:03.012Z,97.5
2019-03-29T09:08:03.251Z,99.4
2019-03-29T09:09:03.188Z,99.6
2019-03-29T09:10:03.166Z,99.6
2019-03-29T09:11:02.973Z,100.3
2019-03-29T09:12:15.271Z,100.3
2019-03-29T09:13:05.047Z,100.8
2019-03-29T09:14:03.078Z,100.3
2019-03-29T09:15:04.450Z,99.4
2019-03-29T09:16:03.062Z,100.3
2019-03-29T09:17:03.181Z,99.1
2019-03-29T09:18:04.671Z,98.9
2019-03-29T09:19:03.079Z,98.2
2019-03-29T09:20:03.136Z,97.5
2019-03-29T09:21:02.878Z,96.8
2019-03-29T09:22:03.190Z,96.6
2019-03-29T09:23:03.282Z,95.6
2019-03-29T09:24:03.372Z,95.4
2019-03-29T09:25:02.971Z,94.7
2019-03-29T09:26:03.034Z,95.9
2019-03-29T09:27:03.239Z,97.5
2019-03-29T09:28:02.763Z,97
2019-03-29T09:29:03.082Z,96.6
2019-03-29T09:30:05.482Z,95.2
2019-03-29T09:31:02.989Z,94.2
2019-03-29T09:32:03.618Z,95.4
2019-03-29T09:33:03.730Z,94.7
2019-03-29T09:34:03.052Z,93.8
2019-03-29T09:35:03.064Z,94
2019-03-29T09:36:05.611Z,93.5
2019-03-29T09:37:03.203Z,93.5
2019-03-29T09:38:02.840Z,92.1
2019-03-29T09:39:03.189Z,92.4
2019-03-29T09:40:03.781Z,91.7
2019-03-29T09:41:03.893Z,91.9
2019-03-29T09:42:03.704Z,92.4
2019-03-29T09:43:09.150Z,92.1
2019-03-29T09:44:03.547Z,91.7
2019-03-29T09:45:03.642Z,91.7
2019-03-29T09:46:03.976Z,91.2
2019-03-29T09:47:03.804Z,92.4
2019-03-29T09:48:03.725Z,91.2
2019-03-29T09:49:03.926Z,92.1
2019-03-29T09:50:03.415Z,92.1
2019-03-29T09:51:03.262Z,92.4
2019-03-29T09:52:03.425Z,92.8
2019-03-29T09:53:03.192Z,93.5
2019-03-29T09:54:03.198Z,93.1
2019-03-29T09:55:03.320Z,93.3
2019-03-29T09:56:03.054Z,93.5
2019-03-29T09:57:03.039Z,93.1
2019-03-29T09:58:03.237Z,92.1
2019-03-29T09:59:03.011Z,92.1
2019-03-29T10:00:24.090Z,91
2019-03-29T10:01:03.122Z,90.3
2019-03-29T10:02:03.473Z,90.3
2019-03-29T10:03:03.034Z,90.5
2019-03-29T10:04:03.353Z,91
2019-03-29T10:05:03.447Z,91.9
2019-03-29T10:06:02.935Z,92.6
2019-03-29T10:07:03.185Z,92.8
2019-03-29T10:08:03.004Z,91
2019-03-29T10:09:03.780Z,92.6
2019-03-29T10:10:03.026Z,93.5
2019-03-29T10:11:03.301Z,93.5
2019-03-29T10:12:03.149Z,94
2019-03-29T10:13:03.107Z,94.5
2019-03-29T10:14:03.036Z,94.5
2019-03-29T10:15:03.565Z,95.2
2019-03-29T10:16:03.149Z,94
2019-03-29T10:17:03.399Z,94.5
2019-03-29T10:18:03.200Z,94.7
2019-03-29T10:19:03.035Z,94.9
2019-03-29T10:20:03.633Z,95.4
2019-03-29T10:21:03.079Z,96.1
2019-03-29T10:22:03.265Z,96.1
2019-03-29T10:23:03.131Z,96.1
2019-03-29T10:24:03.360Z,97.5
2019-03-29T10:25:20.654Z,97.5
2019-03-29T10:26:03.781Z,97.7
2019-03-29T10:27:03.239Z,97.5
2019-03-29T10:28:03.681Z,97.7
2019-03-29T10:29:03.384Z,98.7
2019-03-29T10:30:03.540Z,98.9
2019-03-29T10:31:03.157Z,99.4
2019-03-29T10:32:09.834Z,98.2
2019-03-29T10:33:03.361Z,97.7
2019-03-29T10:34:03.632Z,98.4
2019-03-29T10:35:03.639Z,98.2
2019-03-29T10:36:03.511Z,98.2
2019-03-29T10:37:03.630Z,97.3
2019-03-29T10:38:03.612Z,97.7
2019-03-29T10:39:03.542Z,98
2019-03-29T10:40:03.416Z,97.5
2019-03-29T10:41:03.155Z,97.5
2019-03-29T10:42:03.403Z,98.7
2019-03-29T10:43:03.272Z,99.1
2019-03-29T10:44:03.500Z,98.9
2019-03-29T10:45:03.582Z,98.4
2019-03-29T10:46:03.546Z,98.4
2019-03-29T10:47:03.215Z,98
2019-03-29T10:48:03.294Z,98.4
2019-03-29T10:49:03.344Z,97
2019-03-29T10:50:03.805Z,97.3
2019-03-29T10:51:02.256Z,96.8
2019-03-29T10:52:03.685Z,96.1
2019-03-29T10:53:03.783Z,96.3
2019-03-29T10:54:03.623Z,95.6
2019-03-29T10:55:03.784Z,94.9
2019-03-29T10:56:03.742Z,93.3
2019-03-29T10:57:03.684Z,92.6
2019-03-29T10:58:03.366Z,92.8
2019-03-29T10:59:03.019Z,94
2019-03-29T11:00:03.712Z,94.2
2019-03-29T11:01:03.379Z,95.2
2019-03-29T11:02:03.686Z,94.5
2019-03-29T11:03:03.542Z,94.9
2019-03-29T11:04:03.658Z,95.4
2019-03-29T11:05:03.650Z,94.7
2019-03-29T11:06:03.130Z,94.7
2019-03-29T11:07:03.643Z,94.9
2019-03-29T11:08:03.319Z,95.9
2019-03-29T11:09:03.407Z,94.7
2019-03-29T11:10:03.513Z,93.5
2019-03-29T11:11:03.242Z,93.3
2019-03-29T11:12:02.908Z,93.1
2019-03-29T11:13:14.822Z,92.1
2019-03-29T11:14:03.224Z,92.8
2019-03-29T11:15:07.266Z,92.4
2019-03-29T11:16:03.194Z,93.1
2019-03-29T11:17:03.593Z,92.8
2019-03-29T11:18:03.154Z,93.5
2019-03-29T11:19:03.446Z,94
2019-03-29T11:20:03.512Z,93.8
2019-03-29T11:21:03.513Z,94.7
2019-03-29T11:22:03.493Z,95.6
2019-03-29T11:23:03.513Z,95.2
2019-03-29T11:24:03.456Z,93.8
2019-03-29T11:25:03.614Z,95.2
2019-03-29T11:26:03.640Z,94
2019-03-29T11:27:03.426Z,91.9
2019-03-29T11:28:03.580Z,92.1
2019-03-29T11:29:03.634Z,92.4
2019-03-29T11:30:03.916Z,92.6
2019-03-29T11:31:03.539Z,92.8
2019-03-29T11:32:03.684Z,94.2
2019-03-29T11:33:03.395Z,94.9
2019-03-29T11:34:03.818Z,94.7
2019-03-29T11:35:03.853Z,95.2
2019-03-29T11:36:02.853Z,95.2
2019-03-29T11:37:02.657Z,95.2
2019-03-29T11:38:02.875Z,94.9
2019-03-29T11:39:03.971Z,94.5
2019-03-29T11:40:03.095Z,94.7
2019-03-29T11:41:03.208Z,94
2019-03-29T11:42:04.073Z,93.1
2019-03-29T11:43:02.976Z,92.8
2019-03-29T11:44:03.619Z,93.3
2019-03-29T11:45:03.256Z,92.8
2019-03-29T11:46:03.620Z,92.8
2019-03-29T11:47:03.167Z,92.1
2019-03-29T11:48:10.047Z,92.4
2019-03-29T11:49:03.051Z,92.8
2019-03-29T11:50:03.855Z,92.8
2019-03-29T11:51:03.185Z,94
2019-03-29T11:52:03.045Z,94.2
2019-03-29T11:53:03.894Z,94
2019-03-29T11:54:03.212Z,93.1
2019-03-29T11:55:02.784Z,91.7
2019-03-29T11:56:03.837Z,93.1
2019-03-29T11:57:03.006Z,93.1
2019-03-29T11:58:03.655Z,94
2019-03-29T11:59:03.798Z,92.8
2019-03-29T12:00:03.885Z,92.4
2019-03-29T12:01:05.868Z,92.6
2019-03-29T12:02:03.055Z,92.8
2019-03-29T12:03:03.932Z,91.7
2019-03-29T12:04:03.742Z,90.7
2019-03-29T12:05:03.731Z,90.5
2019-03-29T12:06:03.066Z,90.7
2019-03-29T12:07:04.030Z,90.5
2019-03-29T12:08:03.663Z,89.8
2019-03-29T12:09:03.858Z,89.1
2019-03-29T12:10:03.724Z,89.6
2019-03-29T12:11:02.903Z,89.3
2019-03-29T12:12:03.938Z,88.4
2019-03-29T12:13:03.688Z,88.4
2019-03-29T12:14:05.412Z,87.9
2019-03-29T12:15:03.849Z,87.9
2019-03-29T12:16:03.584Z,87.7
2019-03-29T12:17:03.571Z,86.8
2019-03-29T12:18:03.689Z,86.1
2019-03-29T12:19:03.901Z,85.1
2019-03-29T12:20:03.633Z,85.4
2019-03-29T12:21:03.675Z,84.4
2019-03-29T12:22:03.689Z,83.3
2019-03-29T12:23:02.936Z,84.2
2019-03-29T12:24:03.619Z,86.3
2019-03-29T12:25:03.141Z,84
2019-03-29T12:26:03.450Z,84.4
2019-03-29T12:27:03.306Z,85.6
2019-03-29T12:28:03.872Z,84.9
2019-03-29T12:29:03.439Z,85.1
2019-03-29T12:30:03.531Z,85.4
2019-03-29T12:31:03.542Z,85.4
2019-03-29T12:32:03.585Z,84.9
2019-03-29T12:33:03.158Z,84.7
2019-03-29T12:34:03.238Z,84.2
2019-03-29T12:35:03.879Z,83.5
2019-03-29T12:36:03.519Z,84.2
2019-03-29T12:37:03.820Z,84.4
2019-03-29T12:38:03.301Z,84.4
2019-03-29T12:39:03.434Z,86.3
2019-03-29T12:40:03.476Z,87.7
2019-03-29T12:41:03.388Z,88.6
2019-03-29T12:42:03.243Z,88.6
2019-03-29T12:43:03.581Z,89.1
2019-03-29T12:44:03.364Z,90.3
2019-03-29T12:45:03.513Z,91.4
2019-03-29T12:46:03.396Z,91.9
2019-03-29T12:47:03.311Z,92.1
2019-03-29T12:48:03.413Z,91
2019-03-29T12:49:03.444Z,90.5
2019-03-29T12:50:03.634Z,90.5
2019-03-29T12:51:03.561Z,90.3
2019-03-29T12:52:03.564Z,90.3
2019-03-29T12:53:03.689Z,90
2019-03-29T12:54:03.495Z,91.2
2019-03-29T12:55:03.623Z,93.3
2019-03-29T12:56:03.135Z,93.3
2019-03-29T12:57:04.178Z,94
2019-03-29T12:58:03.100Z,92.6
2019-03-29T12:59:03.191Z,92.4
2019-03-29T13:00:03.205Z,91.9
2019-03-29T13:01:03.787Z,91.2
2019-03-29T13:02:02.993Z,91.2
2019-03-29T13:03:03.192Z,91
2019-03-29T13:04:03.022Z,91.7
2019-03-29T13:05:03.079Z,91.4
2019-03-29T13:06:03.523Z,91.2
2019-03-29T13:07:03.370Z,91.2
2019-03-29T13:08:03.524Z,91.4
2019-03-29T13:09:03.285Z,92.4
2019-03-29T13:10:03.532Z,93.8
2019-03-29T13:11:03.189Z,92.4
2019-03-29T13:12:03.424Z,92.8
2019-03-29T13:13:03.467Z,92.4
2019-03-29T13:14:11.209Z,92.6
2019-03-29T13:15:03.452Z,92.4
2019-03-29T13:16:03.566Z,92.1
2019-03-29T13:17:03.842Z,94
2019-03-29T13:18:03.655Z,94
2019-03-29T13:19:03.522Z,94.2
2019-03-29T13:20:03.779Z,94.2
2019-03-29T13:21:03.556Z,94.5